ADDS METAR Data INFO
IDs: Format: Raw Decoded Include TAF

Data at: 0213 UTC 18 Jan 2018

KLCK 180155Z AUTO 21007KT 10SM CLR M13/M15 A3043 RMK AO2 T11301151
KLCK 180135Z AUTO 20008KT 10SM CLR M13/M15 A3043 RMK AO2 T11331154
KLCK 180115Z AUTO 21007KT 10SM CLR M13/M15 A3044 RMK AO2 T11341155
KLCK 180055Z AUTO 20006KT 10SM CLR M14/M16 A3045 RMK AO2 T11361156
KLCK 180035Z AUTO 20005KT 10SM CLR M13/M15 A3045 RMK AO2 T11321154
KLCK 180015Z AUTO 20005KT 10SM CLR M13/M15 A3046 RMK AO2 T11321155
KLCK 172355Z AUTO 19006KT 10SM CLR M14/M16 A3046 RMK AO2 T11381158
KLCK 172335Z AUTO 18005KT 10SM CLR M14/M16 A3046 RMK AO2 T11401160
KLCK 172315Z AUTO 18004KT 10SM CLR M14/M16 A3047 RMK AO2 T11421162
KLCK 172255Z AUTO 18003KT 10SM CLR M13/M16 A3048 RMK AO2 T11341159
KLCK 172235Z AUTO 21003KT 10SM CLR M12/M15 A3048 RMK AO2 T11251151
KLCK 172215Z AUTO 23003KT 10SM CLR M12/M15 A3048 RMK AO2 T11221152
KLCK 172155Z AUTO 22005KT 10SM CLR M12/M15 A3049 RMK AO2 T11201151
KLCK 172135Z AUTO 22005KT 10SM CLR M12/M15 A3049 RMK AO2 T11161150
KLCK 172115Z AUTO 22008KT 10SM SCT016 M11/M15 A3049 RMK AO2 T11141147
KLCK 172055Z AUTO 22007KT 10SM BKN016 M11/M15 A3049 RMK AO2 T11131146
KLCK 172035Z AUTO 23005KT 10SM BKN016 M11/M15 A3050 RMK AO2 T11121146
KLCK 172015Z AUTO 23006KT 10SM BKN016 M11/M15 A3050 RMK AO2 T11131147
KLCK 171955Z AUTO 22007KT 7SM BKN016 M11/M15 A3050 RMK AO2 T11131147
KLCK 171935Z AUTO 22008KT 10SM BKN016 M11/M15 A3050 RMK AO2 T11141149
KLCK 171915Z AUTO 23006KT 10SM OVC018 M11/M15 A3051 RMK AO2 T11151149
KLCK 171855Z AUTO 24009KT 10SM SCT011 OVC018 M12/M15 A3052 RMK AO2 T11161148
KLCK 171835Z AUTO 25009KT 7SM OVC016 M12/M15 A3051 RMK AO2 T11161150
KLCK 171815Z AUTO 24006KT 10SM OVC016 M12/M15 A3051 RMK AO2 T11171151
KLCK 171755Z AUTO 25008KT 10SM OVC016 M12/M15 A3052 RMK AO2 T11171151
KLCK 171735Z AUTO 26005KT 10SM OVC016 M12/M15 A3053 RMK AO2 T11191153
KLCK 171715Z AUTO 24007KT 10SM OVC016 M12/M15 A3053 RMK AO2 T11201153
KLCK 171655Z AUTO 24005KT 10SM OVC016 M12/M15 A3054 RMK AO2 T11201152
KLCK 171635Z AUTO 24006KT 4SM -SN OVC016 M12/M15 A3055 RMK AO2 T11181150
KLCK 171615Z AUTO 24006KT 10SM OVC016 M12/M15 A3055 RMK AO2 T11191149
KLCK 171555Z AUTO 23004KT 7SM OVC016 M12/M15 A3055 RMK AO2 T11201147
KLCK 171535Z AUTO 21003KT 4SM -SN OVC016 M12/M15 A3055 RMK AO2 T11231146
KLCK 171515Z AUTO 24004KT 7SM OVC016 M12/M15 A3055 RMK AO2 T11241147
KLCK 171455Z AUTO 23004KT 4SM -SN OVC016 M13/M15 A3054 RMK AO2 T11261147
KLCK 171435Z AUTO 24005KT 4SM -SN OVC014 M13/M15 A3054 RMK AO2 T11281147
KLCK 171415Z AUTO 23004KT 3SM -SN OVC014 M13/M15 A3054 RMK AO2 T11301147
KLCK 171355Z AUTO 21003KT 4SM -SN OVC014 M13/M15 A3054 RMK AO2 T11311149
KLCK 171335Z AUTO 21004KT 7SM OVC012 M13/M15 A3054 RMK AO2 T11321150
KLCK 171315Z AUTO 23003KT 7SM OVC010 M13/M15 A3053 RMK AO2 T11341150
KLCK 171255Z AUTO 24004KT 10SM OVC010 M13/M15 A3053 RMK AO2 T11351150
KLCK 171235Z AUTO 24004KT 10SM OVC010 M13/M15 A3053 RMK AO2 T11351150
KLCK 171215Z AUTO 22004KT 10SM OVC010 M14/M15 A3053 RMK AO2 T11361153
KLCK 171155Z AUTO 23003KT 10SM OVC010 M14/M15 A3053 RMK AO2 T11371155
KLCK 171135Z AUTO 24003KT 7SM OVC012 M14/M16 A3053 RMK AO2 T11371158
KLCK 171115Z AUTO 30004KT 10SM OVC012 M14/M16 A3054 RMK AO2 T11391159
KLCK 171055Z AUTO 28003KT 10SM OVC012 M14/M16 A3054 RMK AO2 T11391157
KLCK 171035Z AUTO 28005KT 10SM OVC012 M14/M16 A3053 RMK AO2 T11401157
KLCK 171015Z AUTO 29005KT 7SM -SN OVC012 M14/M16 A3053 RMK AO2 T11401157
KLCK 170955Z AUTO 29006KT 10SM OVC012 M14/M16 A3053 RMK AO2 T11401159
KLCK 170935Z AUTO 27003KT 7SM -SN OVC014 M14/M16 A3053 RMK AO2 T11411160
KLCK 170915Z AUTO 30004KT 7SM -SN OVC014 M14/M16 A3053 RMK AO2 T11421161
KLCK 170855Z AUTO 30003KT 7SM -SN OVC014 M14/M16 A3053 RMK AO2 T11421165
KLCK 170835Z AUTO 26006KT 7SM -SN OVC014 M14/M16 A3053 RMK AO2 T11431165
KLCK 170815Z AUTO 28006KT 10SM OVC014 M14/M16 A3053 RMK AO2 T11431165
KLCK 170755Z AUTO 28006KT 5SM -SN OVC014 M14/M16 A3053 RMK AO2 T11431165
KLCK 170735Z AUTO 27004KT 7SM -SN OVC016 M14/M17 A3053 RMK AO2 T11451166
KLCK 170715Z AUTO 27004KT 7SM -SN OVC016 M14/M17 A3053 RMK AO2 T11451167
KLCK 170655Z AUTO 24003KT 10SM OVC016 M14/M17 A3052 RMK AO2 T11441167
KLCK 170635Z AUTO 25003KT 10SM OVC016 M14/M17 A3052 RMK AO2 T11431166
KLCK 170615Z AUTO 29004KT 10SM OVC016 M14/M17 A3053 RMK AO2 T11451166
KLCK 170555Z AUTO 26003KT 10SM OVC016 M14/M17 A3053 RMK AO2 T11441166
KLCK 170535Z AUTO 26003KT 10SM OVC016 M14/M17 A3053 RMK AO2 T11451167
KLCK 170515Z AUTO 27004KT 10SM OVC016 M15/M17 A3054 RMK AO2 T11461169
KLCK 170455Z AUTO 28004KT 10SM OVC016 M15/M17 A3054 RMK AO2 T11461170
KLCK 170435Z AUTO 28004KT 10SM OVC016 M15/M17 A3055 RMK AO2 T11461172
KLCK 170415Z AUTO 31004KT 10SM OVC014 M15/M17 A3054 RMK AO2 T11461172
KLCK 170355Z AUTO 29006KT 10SM OVC016 M15/M17 A3055 RMK AO2 T11471175
KLCK 170335Z AUTO 29006KT 10SM OVC018 M15/M17 A3055 RMK AO2 T11471175
KLCK 170315Z AUTO 28005KT 10SM OVC020 M15/M18 A3054 RMK AO2 T11461176
KLCK 170255Z AUTO 29004KT 10SM OVC020 M14/M17 A3053 RMK AO2 T11431175
KLCK 170235Z AUTO 30007KT 10SM OVC020 M14/M17 A3053 RMK AO2 T11411175
KLCK 170215Z AUTO 29007KT 10SM OVC020 M14/M17 A3053 RMK AO2 T11431173
KLCK 170155Z AUTO 26005KT 10SM OVC020 M14/M17 A3053 RMK AO2 T11431174
KLCK 170135Z AUTO 25005KT 10SM OVC020 M14/M17 A3053 RMK AO2 T11381172
KLCK 170115Z AUTO 29007KT 10SM OVC020 M14/M17 A3052 RMK AO2 T11421175
KLCK 170055Z AUTO 26004KT 10SM OVC020 M14/M18 A3051 RMK AO2 T11441178
KLCK 170035Z AUTO 26005KT 10SM OVC020 M14/M18 A3051 RMK AO2 T11411177
KLCK 170015Z AUTO 26005KT 10SM OVC020 M14/M18 A3051 RMK AO2 T11401178
KLCK 162355Z AUTO 23005KT 10SM OVC020 M14/M18 A3050 RMK AO2 T11421181
KLCK 162335Z AUTO 24005KT 10SM OVC022 M14/M18 A3050 RMK AO2 T11441183
KLCK 162315Z AUTO 23004KT 10SM OVC022 M14/M18 A3050 RMK AO2 T11401180
KLCK 162255Z AUTO 24004KT 10SM OVC022 M14/M18 A3049 RMK AO2 T11371180
KLCK 162235Z AUTO 24006KT 10SM OVC022 M14/M18 A3049 RMK AO2 T11361180
KLCK 162215Z AUTO 24007KT 10SM OVC022 M14/M18 A3049 RMK AO2 T11371182
KLCK 162155Z AUTO 25006KT 10SM BKN022 M14/M19 A3048 RMK AO2 T11431187
KLCK 162135Z AUTO 26006KT 10SM CLR M14/M19 A3048 RMK AO2 T11381186
KLCK 162115Z AUTO 26008KT 10SM CLR M14/M18 A3047 RMK AO2 T11381185
KLCK 162055Z AUTO 26007KT 10SM CLR M14/M18 A3047 RMK AO2 T11361185
KLCK 162035Z AUTO 26008KT 10SM CLR M14/M18 A3046 RMK AO2 T11361184
KLCK 162015Z AUTO 25008KT 10SM CLR M13/M18 A3046 RMK AO2 T11351182
KLCK 161955Z AUTO 24007KT 10SM CLR M13/M18 A3046 RMK AO2 T11351182
KLCK 161935Z AUTO 25007KT 10SM CLR M14/M18 A3046 RMK AO2 T11381185
KLCK 161915Z AUTO 27009KT 10SM CLR M14/M18 A3046 RMK AO2 T11381184
KLCK 161855Z AUTO 25010KT 10SM CLR M13/M18 A3046 RMK AO2 T11351177
KLCK 161835Z AUTO 28007KT 10SM CLR M13/M18 A3046 RMK AO2 T11351177
KLCK 161815Z AUTO 25009KT 10SM CLR M14/M17 A3046 RMK AO2 T11361175
KLCK 161755Z AUTO 28008KT 10SM CLR M14/M17 A3047 RMK AO2 T11361175
KLCK 161735Z AUTO 28009KT 10SM CLR M14/M18 A3047 RMK AO2 T11361176
KLCK 161715Z AUTO 26007KT 10SM SCT065 M14/M18 A3048 RMK AO2 T11371178
KLCK 161655Z AUTO 26008KT 10SM CLR M14/M18 A3049 RMK AO2 T11381179
KLCK 161635Z AUTO 27006KT 10SM CLR M14/M18 A3049 RMK AO2 T11391180
KLCK 161615Z AUTO 27008KT 10SM CLR M14/M18 A3050 RMK AO2 T11401180
KLCK 161555Z AUTO 27009KT 10SM SCT060 M14/M18 A3049 RMK AO2 T11391178
KLCK 161535Z AUTO 27012KT 10SM OVC060 M13/M17 A3050 RMK AO2 T11351171
KLCK 161515Z AUTO 28010KT 10SM OVC060 M13/M17 A3050 RMK AO2 T11331169
KLCK 161455Z AUTO 28008KT 10SM OVC060 M13/M17 A3049 RMK AO2 T11331168
KLCK 161435Z AUTO 28011KT 10SM BKN060 BKN070 OVC080 M13/M17 A3049 RMK AO2 T11321167
KLCK 161415Z AUTO 28009KT 10SM SCT020 BKN060 M13/M16 A3047 RMK AO2 T11311165